Time;durP1;ratioP1;P1;durP2;ratioP2;P2;SDS_P1;SDS_P2;PMS_P1;PMS_P2;Temp;Humidity;BMP_temperature;BMP_pressure;BME280_temperature;BME280_humidity;BME280_pressure;Samples;Min_cycle;Max_cycle;Signal;HPM_P1;HPM_P2
2021/11/30 00:02:23;;;;;;;14.57;2.80;;;;;;;6.29;100.00;100680.53;5074354;28;20508;-36
2021/11/30 00:04:51;;;;;;;13.48;2.90;;;;;;;6.30;100.00;100690.50;5073783;28;20060;-34
2021/11/30 00:07:20;;;;;;;18.23;3.35;;;;;;;6.33;100.00;100681.66;5073272;28;20068;-31
2021/11/30 00:12:34;;;;;;;11.48;2.30;;;;;;;6.37;100.00;100677.22;5074333;28;20043;-31
2021/11/30 00:15:04;;;;;;;11.20;2.72;;;;;;;6.41;100.00;100672.78;5073923;28;20055;-33
2021/11/30 00:17:32;;;;;;;18.70;3.40;;;;;;;6.47;100.00;100663.38;5073341;28;20040;-29
2021/11/30 00:19:59;;;;;;;12.07;2.40;;;;;;;6.51;100.00;100650.63;5073940;28;20064;-32
2021/11/30 00:22:29;;;;;;;9.00;2.20;;;;;;;6.52;100.00;100648.69;5074069;28;20511;-28
2021/11/30 00:24:56;;;;;;;12.88;2.10;;;;;;;6.55;100.00;100642.59;5072400;28;20044;-31
2021/11/30 00:27:25;;;;;;;9.38;2.50;;;;;;;6.59;100.00;100653.97;5073778;28;20047;-33
2021/11/30 00:29:53;;;;;;;10.38;2.05;;;;;;;6.63;100.00;100639.22;5073561;28;20045;-30
2021/11/30 00:32:21;;;;;;;17.55;2.30;;;;;;;6.70;100.00;100650.06;5073084;28;20051;-36
2021/11/30 00:34:48;;;;;;;11.38;2.20;;;;;;;6.76;100.00;100649.78;5073799;28;20056;-29
2021/11/30 00:37:16;;;;;;;14.52;2.13;;;;;;;6.83;100.00;100646.69;5073573;28;20063;-38
2021/11/30 00:39:45;;;;;;;10.65;2.35;;;;;;;6.88;100.00;100655.03;5073132;28;20568;-36
2021/11/30 00:42:13;;;;;;;11.25;2.70;;;;;;;6.89;100.00;100656.69;5073345;28;20501;-35
2021/11/30 00:44:42;;;;;;;10.80;2.55;;;;;;;6.90;100.00;100627.84;5073708;28;20143;-36
2021/11/30 00:47:17;;;;;;;9.50;2.53;;;;;;;6.92;100.00;100658.91;5072922;28;20052;-36
2021/11/30 00:49:46;;;;;;;11.88;2.10;;;;;;;6.95;100.00;100633.38;5073505;28;20104;-27
2021/11/30 00:52:14;;;;;;;8.82;1.85;;;;;;;6.99;100.00;100642.81;5072719;28;20444;-33
2021/11/30 00:54:42;;;;;;;7.82;2.10;;;;;;;7.04;100.00;100642.78;5073478;28;20036;-27
2021/11/30 00:57:12;;;;;;;11.75;3.03;;;;;;;7.07;100.00;100641.38;5073275;28;20131;-34
2021/11/30 00:59:41;;;;;;;10.70;2.70;;;;;;;7.11;100.00;100631.38;5062394;28;20044;-35
2021/11/30 01:02:09;;;;;;;13.60;2.50;;;;;;;7.17;100.00;100631.09;5072983;28;20056;-36
2021/11/30 01:04:37;;;;;;;13.77;2.50;;;;;;;7.21;100.00;100606.38;5073280;28;20375;-31
2021/11/30 01:07:07;;;;;;;14.05;2.72;;;;;;;7.24;100.00;100622.47;5072535;28;20045;-28
2021/11/30 01:09:35;;;;;;;11.52;2.17;;;;;;;7.28;100.00;100620.78;5072644;28;20055;-33
2021/11/30 01:12:03;;;;;;;12.18;2.42;;;;;;;7.29;100.00;100624.41;5073217;28;20131;-32
2021/11/30 01:14:32;;;;;;;10.48;2.25;;;;;;;7.30;100.00;100603.84;5072303;28;20044;-34
2021/11/30 01:17:00;;;;;;;9.93;2.33;;;;;;;7.33;100.00;100601.34;5073006;28;20409;-35
2021/11/30 01:19:28;;;;;;;13.57;2.38;;;;;;;7.36;100.00;100616.59;5072790;28;20044;-33
2021/11/30 01:21:56;;;;;;;12.85;2.83;;;;;;;7.39;100.00;100603.00;5070907;28;20674;-39
2021/11/30 01:24:23;;;;;;;12.55;2.92;;;;;;;7.44;100.00;100607.66;5073020;28;20041;-39
2021/11/30 01:26:51;;;;;;;16.38;3.90;;;;;;;7.47;100.00;100598.78;5061291;28;20051;-31
2021/11/30 01:29:19;;;;;;;15.88;3.05;;;;;;;7.51;100.00;100600.69;5072381;28;20086;-32
2021/11/30 01:31:48;;;;;;;15.60;3.78;;;;;;;7.56;100.00;100595.13;5072629;28;20036;-35
2021/11/30 01:34:16;;;;;;;14.80;3.95;;;;;;;7.59;100.00;100605.63;5072488;28;20409;-38
2021/11/30 01:36:43;;;;;;;15.60;3.40;;;;;;;7.63;100.00;100588.41;5072527;28;20049;-37
2021/11/30 01:39:11;;;;;;;15.23;3.42;;;;;;;7.66;100.00;100591.44;5072500;28;20044;-35
2021/11/30 01:41:41;;;;;;;14.73;3.58;;;;;;;7.69;100.00;100588.09;5072091;28;20067;-34
2021/11/30 01:44:22;;;;;;;10.23;3.40;;;;;;;7.72;100.00;100584.75;5072340;28;20036;-34
2021/11/30 01:47:05;;;;;;;13.68;4.00;;;;;;;7.75;100.00;100575.84;5072243;28;20053;-35
2021/11/30 01:49:34;;;;;;;16.83;3.30;;;;;;;7.78;100.00;100589.19;5071608;28;20036;-29
2021/11/30 01:52:04;;;;;;;12.60;2.97;;;;;;;7.81;100.00;100580.25;5072317;28;20041;-30
2021/11/30 01:54:32;;;;;;;17.58;3.53;;;;;;;7.85;100.00;100580.50;5072204;28;20056;-38
2021/11/30 01:57:00;;;;;;;17.63;3.17;;;;;;;7.89;100.00;100573.25;5071618;28;20052;-28
2021/11/30 01:59:27;;;;;;;19.20;3.42;;;;;;;7.94;100.00;100567.66;5071863;28;20043;-34
2021/11/30 02:01:57;;;;;;;12.57;3.15;;;;;;;7.98;100.00;100567.94;5072093;28;20396;-32
2021/11/30 02:04:25;;;;;;;18.25;3.88;;;;;;;8.00;100.00;100551.78;5071515;28;20382;-34
2021/11/30 02:06:52;;;;;;;17.10;3.10;;;;;;;8.04;100.00;100550.06;5064281;28;20048;-37
2021/11/30 02:09:20;;;;;;;16.95;3.42;;;;;;;8.07;100.00;100557.84;5071558;28;20037;-33
2021/11/30 02:11:48;;;;;;;14.88;2.90;;;;;;;8.09;100.00;100553.66;5071603;28;20048;-32
2021/11/30 02:14:16;;;;;;;13.82;2.70;;;;;;;8.12;100.00;100549.47;5071879;28;20053;-31
2021/11/30 02:16:45;;;;;;;16.95;3.35;;;;;;;8.16;100.00;100547.78;5071394;28;20056;-30
2021/11/30 02:19:14;;;;;;;12.25;2.40;;;;;;;8.20;100.00;100537.72;5071428;28;20375;-36
2021/11/30 02:21:44;;;;;;;16.70;3.63;;;;;;;8.24;100.00;100539.63;5071207;28;20051;-38
2021/11/30 02:24:12;;;;;;;14.85;2.63;;;;;;;8.27;100.00;100539.03;5071064;28;20135;-33
2021/11/30 02:26:41;;;;;;;9.77;2.20;;;;;;;8.32;100.00;100526.22;5070012;28;20119;-34
2021/11/30 02:29:10;;;;;;;14.93;2.70;;;;;;;8.32;100.00;100532.66;5071812;28;20054;-34
2021/11/30 02:31:45;;;;;;;17.05;3.03;;;;;;;8.35;100.00;100526.50;5070809;28;20051;-31
2021/11/30 02:34:13;;;;;;;9.85;2.92;;;;;;;8.37;100.00;100513.16;5067381;28;20052;-37
2021/11/30 02:36:52;;;;;;;19.40;2.80;;;;;;;8.41;100.00;100522.53;5071347;28;20050;-34
2021/11/30 02:39:22;;;;;;;10.20;2.65;;;;;;;8.44;100.00;100527.50;5070801;28;20481;-30
2021/11/30 02:41:52;;;;;;;18.25;3.08;;;;;;;8.48;100.00;100525.81;5071417;28;20048;-35
2021/11/30 02:44:22;;;;;;;20.20;3.63;;;;;;;8.51;100.00;100507.72;5071186;28;20059;-30
2021/11/30 02:46:54;;;;;;;11.85;2.80;;;;;;;8.53;100.00;100509.06;5070733;28;20044;-35
2021/11/30 02:49:26;;;;;;;23.58;3.60;;;;;;;8.54;100.00;100504.34;5071102;28;20059;-38
2021/11/30 02:52:02;;;;;;;17.15;3.15;;;;;;;8.55;100.00;100501.28;5070681;28;20568;-37
2021/11/30 02:54:30;;;;;;;14.70;3.42;;;;;;;8.57;100.00;100507.38;5071334;28;20044;-33
2021/11/30 02:56:59;;;;;;;16.00;2.78;;;;;;;8.61;100.00;100502.84;5071195;28;20055;-31
2021/11/30 02:59:29;;;;;;;17.08;3.13;;;;;;;8.63;100.00;100500.59;5070407;28;20044;-29
2021/11/30 03:02:00;;;;;;;15.45;3.25;;;;;;;8.68;100.00;100504.47;5070733;28;20057;-40
2021/11/30 03:04:28;;;;;;;11.77;3.10;;;;;;;8.69;100.00;100511.69;5071211;28;20402;-30
2021/11/30 03:06:59;;;;;;;13.55;2.80;;;;;;;8.73;100.00;100501.63;5070522;28;20060;-34
2021/11/30 03:09:27;;;;;;;15.50;2.92;;;;;;;8.73;100.00;100493.28;5070939;28;20048;-36
2021/11/30 03:11:55;;;;;;;17.70;3.15;;;;;;;8.74;100.00;100495.78;5067157;28;20409;-40
2021/11/30 03:14:25;;;;;;;13.05;2.78;;;;;;;8.76;100.00;100490.75;5070514;28;20060;-30
2021/11/30 03:16:55;;;;;;;12.82;2.63;;;;;;;8.79;100.00;100484.56;5070834;28;20413;-35
2021/11/30 03:19:23;;;;;;;17.60;2.45;;;;;;;8.81;100.00;100482.31;5071488;28;20040;-33
2021/11/30 03:21:51;;;;;;;15.60;3.03;;;;;;;8.82;100.00;100478.41;5070118;28;20049;-36
2021/11/30 03:24:20;;;;;;;12.48;2.70;;;;;;;8.88;100.00;100487.53;5071012;28;20048;-36
2021/11/30 03:26:48;;;;;;;13.15;2.88;;;;;;;8.90;100.00;100474.97;5070032;28;20040;-34
2021/11/30 03:29:16;;;;;;;19.05;2.60;;;;;;;8.93;100.00;100479.13;5071013;28;20056;-33
2021/11/30 03:31:50;;;;;;;14.52;2.55;;;;;;;8.96;100.00;100473.81;5072432;28;20056;-34
2021/11/30 03:34:19;;;;;;;13.38;1.83;;;;;;;8.97;100.00;100475.47;5074379;28;20049;-36
2021/11/30 03:36:49;;;;;;;15.90;2.33;;;;;;;9.00;100.00;100479.56;5074848;28;20480;-35
2021/11/30 03:39:18;;;;;;;14.23;2.45;;;;;;;9.03;100.00;100467.84;5075275;28;20045;-35
2021/11/30 03:41:49;;;;;;;14.82;2.38;;;;;;;9.07;100.00;100462.53;5074337;28;20055;-31
2021/11/30 03:44:18;;;;;;;14.13;2.28;;;;;;;9.09;100.00;100460.28;5074697;28;20105;-33
2021/11/30 03:46:46;;;;;;;13.20;2.10;;;;;;;9.11;100.00;100471.94;5074721;28;20044;-36
2021/11/30 03:49:15;;;;;;;11.20;1.95;;;;;;;9.14;100.00;100468.56;5073867;28;20086;-34
2021/11/30 03:51:44;;;;;;;19.42;2.30;;;;;;;9.15;100.00;100465.47;5063673;28;20048;-33
2021/11/30 03:54:12;;;;;;;12.32;2.08;;;;;;;9.19;100.00;100460.94;5074640;28;20072;-33
2021/11/30 03:56:40;;;;;;;14.82;2.17;;;;;;;9.21;100.00;100463.44;5074026;28;20067;-35
2021/11/30 03:59:11;;;;;;;17.15;2.00;;;;;;;9.22;100.00;100459.53;5074468;28;20470;-34
2021/11/30 04:01:38;;;;;;;11.38;2.10;;;;;;;9.24;100.00;100452.53;5073084;28;20058;-35
2021/11/30 04:04:12;;;;;;;15.52;2.22;;;;;;;9.25;100.00;100454.19;5065303;28;20130;-35
2021/11/30 04:06:39;;;;;;;11.32;2.20;;;;;;;9.26;100.00;100455.84;5074329;28;20044;-31
2021/11/30 04:09:07;;;;;;;18.17;2.45;;;;;;;9.27;100.00;100451.94;5073550;28;20513;-37
2021/11/30 04:11:35;;;;;;;14.32;2.30;;;;;;;9.29;100.00;100460.00;5074138;28;20044;-33
2021/11/30 04:14:03;;;;;;;15.18;2.20;;;;;;;9.31;100.00;100452.16;5074017;28;20049;-33
2021/11/30 04:16:32;;;;;;;22.85;3.35;;;;;;;9.31;100.00;100450.22;5073519;28;20136;-33
2021/11/30 04:19:00;;;;;;;18.33;2.45;;;;;;;9.33;100.00;100453.53;5073319;28;20055;-32
2021/11/30 04:21:28;;;;;;;23.33;3.03;;;;;;;9.35;100.00;100453.22;5074239;28;20087;-35
2021/11/30 04:23:56;;;;;;;23.25;2.90;;;;;;;9.35;100.00;100447.66;5073340;28;20048;-34
2021/11/30 04:26:24;;;;;;;21.35;3.22;;;;;;;9.37;100.00;100450.13;5074089;28;20056;-32
2021/11/30 04:28:52;;;;;;;16.70;2.80;;;;;;;9.37;100.00;100441.78;5073612;28;20059;-31
2021/11/30 04:31:19;;;;;;;14.18;2.55;;;;;;;9.38;100.00;100446.22;5073285;28;20115;-32
2021/11/30 04:33:49;;;;;;;16.08;2.20;;;;;;;9.40;100.00;100444.78;5073676;28;20562;-28
2021/11/30 04:36:17;;;;;;;16.73;2.80;;;;;;;9.40;100.00;100443.94;5072974;28;20052;-30
2021/11/30 04:38:45;;;;;;;14.80;2.70;;;;;;;9.42;100.00;100452.81;5072955;28;20052;-33
2021/11/30 04:41:13;;;;;;;13.68;2.53;;;;;;;9.42;100.00;100438.91;5074211;28;20056;-28
2021/11/30 04:43:40;;;;;;;12.65;2.55;;;;;;;9.42;100.00;100448.09;5072553;28;20070;-32
2021/11/30 04:46:12;;;;;;;15.45;2.58;;;;;;;9.44;100.00;100442.22;5072640;28;20386;-30
2021/11/30 04:48:50;;;;;;;16.88;2.20;;;;;;;9.43;100.00;100438.59;5073766;28;20072;-33
2021/11/30 04:51:19;;;;;;;21.98;2.83;;;;;;;9.45;100.00;100430.78;5073010;28;20048;-37
2021/11/30 04:53:48;;;;;;;17.98;2.50;;;;;;;9.47;100.00;100449.97;5062467;28;20052;-32
2021/11/30 04:56:16;;;;;;;19.73;3.00;;;;;;;9.48;100.00;100443.28;5073783;28;20056;-38
2021/11/30 04:58:44;;;;;;;18.88;2.35;;;;;;;9.51;100.00;100440.72;5071343;28;20425;-33
2021/11/30 05:01:12;;;;;;;15.77;2.60;;;;;;;9.51;100.00;100448.25;5073345;28;20054;-31
2021/11/30 05:03:45;;;;;;;11.32;2.00;;;;;;;9.48;100.00;100446.06;5072888;28;20106;-34
2021/11/30 05:06:13;;;;;;;17.25;2.40;;;;;;;9.46;100.00;100437.16;5072590;28;20055;-30
2021/11/30 05:08:42;;;;;;;19.08;2.55;;;;;;;9.46;100.00;100438.00;5073062;28;20036;-31
2021/11/30 05:11:10;;;;;;;16.67;2.17;;;;;;;9.47;100.00;100434.09;5073127;28;20059;-37
2021/11/30 05:13:38;;;;;;;15.00;1.60;;;;;;;9.49;100.00;100447.72;5072553;28;20060;-33
2021/11/30 05:16:06;;;;;;;10.60;1.38;;;;;;;9.45;100.00;100438.31;5073033;28;20068;-36
2021/11/30 05:18:34;;;;;;;9.57;1.70;;;;;;;9.38;100.00;100443.44;5073119;28;20044;-32
2021/11/30 05:21:01;;;;;;;14.98;1.80;;;;;;;9.31;100.00;100441.03;5072046;28;20055;-36
2021/11/30 05:23:30;;;;;;;12.63;1.73;;;;;;;9.29;100.00;100443.28;5072926;28;20045;-37
2021/11/30 05:26:02;;;;;;;14.10;1.60;;;;;;;9.27;100.00;100449.16;5072824;28;20504;-33
2021/11/30 05:28:30;;;;;;;15.25;1.70;;;;;;;9.22;100.00;100442.81;5072477;28;20048;-33
2021/11/30 05:30:59;;;;;;;14.00;1.48;;;;;;;9.18;100.00;100445.41;5072537;28;20057;-39
2021/11/30 05:33:27;;;;;;;11.82;1.63;;;;;;;9.15;100.00;100434.84;5072017;28;20059;-32
2021/11/30 05:35:56;;;;;;;17.88;2.05;;;;;;;9.12;100.00;100440.19;5072404;28;20468;-36
2021/11/30 05:38:23;;;;;;;12.27;1.58;;;;;;;9.12;100.00;100435.44;5072702;28;20044;-35
2021/11/30 05:40:52;;;;;;;13.15;1.90;;;;;;;9.11;100.00;100435.75;5071972;28;20045;-38
2021/11/30 05:43:22;;;;;;;11.98;1.40;;;;;;;9.12;100.00;100441.03;5072428;28;20412;-39
2021/11/30 05:45:50;;;;;;;12.63;1.95;;;;;;;9.11;100.00;100431.00;5072545;28;20036;-39
2021/11/30 05:48:18;;;;;;;15.43;1.77;;;;;;;9.11;100.00;100431.00;5071799;28;20493;-31
2021/11/30 05:50:45;;;;;;;19.70;1.98;;;;;;;9.11;100.00;100442.16;5070711;28;20404;-36
2021/11/30 05:53:13;;;;;;;14.20;2.35;;;;;;;9.12;100.00;100443.81;5072481;28;20052;-34
2021/11/30 05:55:42;;;;;;;18.40;1.80;;;;;;;9.12;100.00;100442.97;5071381;28;20040;-36
2021/11/30 05:58:10;;;;;;;11.93;1.63;;;;;;;9.09;100.00;100454.72;5072059;28;20052;-39
2021/11/30 06:00:39;;;;;;;18.30;1.88;;;;;;;9.10;100.00;100446.06;5071952;28;20519;-33
2021/11/30 06:03:19;;;;;;;12.32;2.03;;;;;;;9.10;100.00;100446.06;5071297;28;20052;-34
2021/11/30 06:05:47;;;;;;;14.55;2.03;;;;;;;9.08;100.00;100444.69;5072015;28;20036;-32
2021/11/30 06:08:15;;;;;;;20.52;2.60;;;;;;;9.08;100.00;100455.84;5072025;28;20107;-34
2021/11/30 06:10:43;;;;;;;20.52;2.10;;;;;;;9.08;100.00;100462.22;5071219;28;20474;-35
2021/11/30 06:13:10;;;;;;;14.35;1.92;;;;;;;9.08;100.00;100453.03;5071885;28;20055;-36
2021/11/30 06:15:40;;;;;;;19.23;2.10;;;;;;;9.10;100.00;100453.56;5071189;28;20060;-36
2021/11/30 06:18:08;;;;;;;15.82;1.77;;;;;;;9.10;100.00;100456.38;5068174;28;20052;-33
2021/11/30 06:20:37;;;;;;;16.17;2.25;;;;;;;9.10;100.00;100457.19;5071735;28;20417;-35
2021/11/30 06:23:04;;;;;;;11.35;1.77;;;;;;;9.10;100.00;100457.19;5070417;28;20056;-35
2021/11/30 06:25:32;;;;;;;13.45;1.95;;;;;;;9.12;100.00;100463.28;5071641;28;20416;-32
2021/11/30 06:28:00;;;;;;;16.92;2.10;;;;;;;9.13;100.00;100464.13;5071046;28;20378;-32
2021/11/30 06:30:28;;;;;;;12.18;1.90;;;;;;;9.12;100.00;100476.38;5071159;28;20473;-34
2021/11/30 06:32:57;;;;;;;16.40;1.73;;;;;;;9.09;100.00;100480.59;5071357;28;20493;-30
2021/11/30 06:35:25;;;;;;;15.80;1.65;;;;;;;9.06;100.00;100481.19;5068582;28;20056;-37
2021/11/30 06:37:53;;;;;;;11.93;2.08;;;;;;;9.06;100.00;100467.25;5070937;28;20036;-30
2021/11/30 06:40:21;;;;;;;12.57;1.67;;;;;;;9.06;100.00;100466.44;5071080;28;20048;-36
2021/11/30 06:42:48;;;;;;;15.05;2.15;;;;;;;9.06;100.00;100480.34;5071205;28;20040;-34
2021/11/30 06:45:16;;;;;;;11.25;1.55;;;;;;;9.04;100.00;100479.81;5070742;28;20052;-35
2021/11/30 06:47:44;;;;;;;11.75;1.55;;;;;;;9.00;100.00;100482.34;5071410;28;20067;-37
2021/11/30 06:50:13;;;;;;;12.05;1.60;;;;;;;9.02;100.00;100482.88;5071260;28;20551;-37
2021/11/30 06:52:48;;;;;;;6.80;1.35;;;;;;;8.98;100.00;100481.84;5059592;28;20044;-33
2021/11/30 06:55:16;;;;;;;10.77;1.83;;;;;;;8.95;100.00;100496.34;5071112;28;20041;-35
2021/11/30 06:57:44;;;;;;;9.85;1.27;;;;;;;8.92;100.00;100494.16;5071196;28;20037;-33
2021/11/30 07:00:16;;;;;;;10.80;1.27;;;;;;;8.91;100.00;100486.94;5071223;28;20055;-31
2021/11/30 07:02:44;;;;;;;12.57;1.70;;;;;;;8.89;100.00;100483.63;5071122;28;20056;-32
2021/11/30 07:05:18;;;;;;;14.40;1.85;;;;;;;8.89;100.00;100489.19;5070480;28;20041;-33
2021/11/30 07:07:57;;;;;;;15.50;1.63;;;;;;;8.86;100.00;100485.03;5070485;28;20075;-32
2021/11/30 07:10:41;;;;;;;13.90;2.05;;;;;;;8.82;100.00;100492.31;5065527;28;20048;-35
2021/11/30 07:13:21;;;;;;;12.30;1.58;;;;;;;8.80;100.00;100493.75;5070455;28;20048;-29
2021/11/30 07:15:52;;;;;;;14.82;1.75;;;;;;;8.79;100.00;100497.69;5071015;28;20049;-33
2021/11/30 07:18:20;;;;;;;15.35;2.08;;;;;;;8.80;100.00;100499.31;5071006;28;20048;-34
2021/11/30 07:20:50;;;;;;;10.90;1.35;;;;;;;8.81;100.00;100503.75;5070306;28;20080;-37
2021/11/30 07:23:18;;;;;;;12.52;2.15;;;;;;;8.82;100.00;100499.84;5070881;28;20075;-37
2021/11/30 07:25:51;;;;;;;17.63;2.05;;;;;;;8.84;100.00;100500.38;5070769;28;20408;-34
2021/11/30 07:28:21;;;;;;;17.17;2.45;;;;;;;8.86;100.00;100498.97;5070822;28;20037;-32
2021/11/30 07:30:49;;;;;;;15.32;2.35;;;;;;;8.87;100.00;100497.00;5070604;28;20044;-27
2021/11/30 07:33:18;;;;;;;14.13;1.58;;;;;;;8.88;100.00;100512.56;5069576;28;20061;-35
2021/11/30 07:35:45;;;;;;;17.50;2.00;;;;;;;8.87;100.00;100514.53;5070235;28;20043;-32
2021/11/30 07:38:15;;;;;;;15.32;2.22;;;;;;;8.90;100.00;100524.25;5070364;28;20049;-30
2021/11/30 07:40:42;;;;;;;14.57;2.05;;;;;;;8.91;100.00;100520.34;5068378;28;20041;-34
2021/11/30 07:43:11;;;;;;;17.92;2.55;;;;;;;8.93;100.00;100520.88;5070495;28;20049;-37
2021/11/30 07:45:38;;;;;;;22.60;2.60;;;;;;;8.93;100.00;100521.69;5070160;28;20048;-30
2021/11/30 07:48:06;;;;;;;12.88;2.00;;;;;;;8.93;100.00;100527.25;5069203;28;20498;-37
2021/11/30 07:50:34;;;;;;;13.90;1.98;;;;;;;8.95;100.00;100525.03;5069265;28;20048;-38
2021/11/30 07:53:02;;;;;;;17.40;2.50;;;;;;;8.96;100.00;100523.06;5070581;28;20056;-35
2021/11/30 07:55:32;;;;;;;11.60;1.83;;;;;;;8.97;100.00;100520.00;5069872;28;20055;-38
2021/11/30 07:57:59;;;;;;;10.73;1.40;;;;;;;8.95;100.00;100518.63;5069754;28;20227;-35
2021/11/30 08:00:27;;;;;;;8.63;1.42;;;;;;;8.90;100.00;100527.84;5070635;28;20045;-36
2021/11/30 08:02:55;;;;;;;13.50;1.65;;;;;;;8.89;100.00;100528.16;5069762;28;20114;-38
2021/11/30 08:05:23;;;;;;;13.68;1.70;;;;;;;8.91;100.00;100525.91;5070582;28;20565;-37
2021/11/30 08:07:51;;;;;;;13.35;1.60;;;;;;;8.93;100.00;100532.00;5070489;28;20055;-33
2021/11/30 08:10:20;;;;;;;11.65;2.10;;;;;;;8.95;100.00;100535.31;5069637;28;20056;-35
2021/11/30 08:12:50;;;;;;;10.68;1.80;;;;;;;8.98;100.00;100531.94;5070601;28;20045;-38
2021/11/30 08:15:17;;;;;;;20.73;3.17;;;;;;;9.03;100.00;100531.88;5069881;28;20053;-32
2021/11/30 08:18:00;;;;;;;14.57;2.00;;;;;;;9.06;100.00;100527.66;5072481;28;20052;-35
2021/11/30 08:20:29;;;;;;;20.58;2.30;;;;;;;9.08;100.00;100526.25;5073671;28;20499;-32
2021/11/30 08:22:57;;;;;;;12.13;1.88;;;;;;;9.10;100.00;100540.69;5073683;28;20040;-35
2021/11/30 08:25:25;;;;;;;16.42;2.03;;;;;;;9.13;100.00;100539.28;5073601;28;20519;-31
2021/11/30 08:27:55;;;;;;;19.33;3.38;;;;;;;9.16;100.00;100541.47;5065192;28;20044;-32
2021/11/30 08:30:43;;;;;;;19.90;2.45;;;;;;;9.17;100.00;100538.38;5073228;28;20148;-37
2021/11/30 08:33:11;;;;;;;17.40;2.53;;;;;;;9.20;100.00;100551.69;5073480;28;20159;-29
2021/11/30 08:35:39;;;;;;;12.40;2.05;;;;;;;9.22;100.00;100555.00;5073879;28;20054;-33
2021/11/30 08:38:07;;;;;;;17.75;2.67;;;;;;;9.24;100.00;100552.75;5073145;28;20102;-35
2021/11/30 08:40:35;;;;;;;9.00;2.00;;;;;;;9.25;100.00;100554.41;5073737;28;20075;-33
2021/11/30 08:43:04;;;;;;;13.55;2.15;;;;;;;9.26;100.00;100549.69;5073643;28;20048;-32
2021/11/30 08:45:32;;;;;;;19.83;2.38;;;;;;;9.28;100.00;100550.22;5072951;28;20059;-38
2021/11/30 08:48:00;;;;;;;12.95;1.50;;;;;;;9.27;100.00;100557.72;5073587;28;20070;-34
2021/11/30 08:50:28;;;;;;;12.13;1.40;;;;;;;9.26;100.00;100546.88;5071457;28;20053;-32
2021/11/30 08:52:57;;;;;;;8.82;1.60;;;;;;;9.26;100.00;100561.63;5073206;28;20090;-30
2021/11/30 08:55:25;;;;;;;10.60;1.50;;;;;;;9.28;100.00;100578.88;5073511;28;20054;-30
2021/11/30 08:57:53;;;;;;;19.17;2.30;;;;;;;9.31;100.00;100569.09;5072991;28;20059;-34
2021/11/30 09:00:27;;;;;;;14.45;2.00;;;;;;;9.31;100.00;100572.72;5073299;28;20084;-35
2021/11/30 09:02:56;;;;;;;14.52;2.00;;;;;;;9.32;100.00;100577.16;5072748;28;20057;-31
2021/11/30 09:05:24;;;;;;;17.25;1.95;;;;;;;9.35;100.00;100586.06;5069581;28;20110;-32
2021/11/30 09:07:52;;;;;;;16.38;2.22;;;;;;;9.37;100.00;100578.22;5073128;28;20148;-30
2021/11/30 09:10:21;;;;;;;8.88;1.55;;;;;;;9.35;100.00;100581.31;5073421;28;20075;-31
2021/11/30 09:12:49;;;;;;;11.50;1.85;;;;;;;9.35;100.00;100574.91;5072036;28;20472;-33
2021/11/30 09:15:17;;;;;;;6.95;1.23;;;;;;;9.35;100.00;100574.91;5073070;28;20452;-37
2021/11/30 09:17:50;;;;;;;13.77;1.43;;;;;;;9.33;100.00;100581.59;5072948;28;20508;-36
2021/11/30 09:20:19;;;;;;;10.75;1.50;;;;;;;9.35;100.00;100572.97;5072397;28;20787;-38
2021/11/30 09:22:49;;;;;;;12.32;1.40;;;;;;;9.36;100.00;100577.41;5072638;28;20093;-32
2021/11/30 09:25:18;;;;;;;7.20;1.52;;;;;;;9.37;100.00;100581.84;5072875;28;20057;-41
2021/11/30 09:27:46;;;;;;;12.48;1.73;;;;;;;9.37;100.00;100581.84;5071898;28;20048;-37
2021/11/30 09:30:16;;;;;;;15.98;1.88;;;;;;;9.38;100.00;100577.94;5072344;28;20410;-38
2021/11/30 09:32:44;;;;;;;10.63;1.83;;;;;;;9.36;100.00;100587.72;5072018;28;20051;-36
2021/11/30 09:35:17;;;;;;;7.40;1.10;;;;;;;9.38;100.00;100596.59;5072679;28;20262;-31
2021/11/30 09:37:46;;;;;;;;;;;;;;;9.31;100.00;100597.78;5072757;28;20105;-37
2021/11/30 09:40:17;;;;;;;7.70;1.20;;;;;;;9.31;100.00;100603.34;5071763;28;19924;-31
2021/11/30 09:42:47;;;;;;;9.30;1.15;;;;;;;9.34;100.00;100607.50;5072321;28;20490;-33
2021/11/30 09:45:15;;;;;;;16.30;1.88;;;;;;;9.38;100.00;100604.97;5072342;28;20064;-37
2021/11/30 09:47:43;;;;;;;10.18;1.48;;;;;;;9.41;100.00;100615.47;5071873;28;20083;-30
2021/11/30 09:50:16;;;;;;;16.67;1.98;;;;;;;9.42;100.00;100604.03;5068585;28;20493;-33
2021/11/30 09:52:46;;;;;;;9.45;1.33;;;;;;;9.42;100.00;100611.56;5072561;28;20401;-33
2021/11/30 09:55:17;;;;;;;11.07;1.42;;;;;;;9.43;100.00;100627.97;5070812;28;20044;-33
2021/11/30 09:57:46;;;;;;;8.50;1.17;;;;;;;9.45;100.00;100616.53;5072290;28;20562;-31
2021/11/30 10:00:15;;;;;;;9.63;1.63;;;;;;;9.45;100.00;100622.13;5072154;28;20048;-39
2021/11/30 10:02:55;;;;;;;7.95;1.23;;;;;;;9.44;100.00;100626.03;5061782;28;20088;-36
2021/11/30 10:05:25;;;;;;;12.25;1.70;;;;;;;9.45;100.00;100628.50;5071637;28;20490;-37
2021/11/30 10:07:55;;;;;;;13.35;2.45;;;;;;;9.44;100.00;100624.06;5059177;28;20049;-36
2021/11/30 10:10:25;;;;;;;11.88;1.60;;;;;;;9.44;100.00;100626.03;5071503;28;20440;-39
2021/11/30 10:13:10;;;;;;;12.38;1.88;;;;;;;9.45;100.00;100627.69;5071905;28;20059;-35
2021/11/30 10:15:57;;;;;;;15.43;2.10;;;;;;;9.45;100.00;100622.94;5071110;28;20036;-33
2021/11/30 10:18:27;;;;;;;15.55;1.95;;;;;;;9.44;100.00;100617.66;5062487;28;20048;-36
2021/11/30 10:20:58;;;;;;;12.40;1.92;;;;;;;9.45;100.00;100627.69;5071526;28;20044;-34
2021/11/30 10:23:30;;;;;;;13.48;2.13;;;;;;;9.46;100.00;100627.38;5071068;28;20375;-32
2021/11/30 10:26:04;;;;;;;12.95;2.15;;;;;;;9.48;100.00;100622.34;5071375;28;20359;-38
2021/11/30 10:28:33;;;;;;;17.52;2.80;;;;;;;9.49;100.00;100620.41;5071794;28;20075;-30
2021/11/30 10:31:01;;;;;;;12.35;1.85;;;;;;;9.50;100.00;100622.88;5070629;28;20409;-31
2021/11/30 10:33:29;;;;;;;10.07;1.83;;;;;;;9.50;100.00;100622.06;5071300;28;20041;-37
2021/11/30 10:36:01;;;;;;;10.55;1.65;;;;;;;9.49;100.00;100623.19;5070227;28;20556;-34
2021/11/30 10:38:36;;;;;;;10.50;1.50;;;;;;;9.49;100.00;100626.78;5067697;28;20044;-38
2021/11/30 10:41:12;;;;;;;15.27;2.22;;;;;;;9.51;100.00;100623.72;5070435;28;20059;-37
2021/11/30 10:43:42;;;;;;;10.52;1.73;;;;;;;9.50;100.00;100622.06;5067142;28;20093;-29
2021/11/30 10:46:19;;;;;;;11.00;1.95;;;;;;;9.49;100.00;100614.81;5071050;28;20135;-38
2021/11/30 10:48:47;;;;;;;9.05;1.45;;;;;;;9.48;100.00;100621.53;5071290;28;20127;-33
2021/11/30 10:51:17;;;;;;;13.73;1.67;;;;;;;9.48;100.00;100621.53;5070828;28;20053;-34
2021/11/30 10:53:46;;;;;;;15.27;1.90;;;;;;;9.49;100.00;100620.41;5071116;28;20385;-27
2021/11/30 10:56:15;;;;;;;22.40;1.88;;;;;;;9.46;100.00;100624.59;5071439;28;20052;-34
2021/11/30 10:58:44;;;;;;;12.20;2.30;;;;;;;9.43;100.00;100622.41;5070394;28;20055;-33
2021/11/30 11:01:14;;;;;;;10.38;1.42;;;;;;;9.43;100.00;100616.84;5070926;28;20131;-32
2021/11/30 11:03:42;;;;;;;14.30;1.90;;;;;;;9.42;100.00;100625.50;5071021;28;20139;-37
2021/11/30 11:09:00;;;;;;;14.57;2.08;;;;;;;9.42;100.00;100631.06;5070982;28;20068;-34
2021/11/30 11:11:30;;;;;;;11.15;1.42;;;;;;;9.41;100.00;100632.19;5070192;28;20543;-31
2021/11/30 11:13:58;;;;;;;13.13;1.60;;;;;;;9.40;100.00;100627.75;5070712;28;20482;-36
2021/11/30 11:16:29;;;;;;;9.55;1.58;;;;;;;9.37;100.00;100625.56;5070783;28;20139;-30
2021/11/30 11:18:58;;;;;;;14.02;1.85;;;;;;;9.35;100.00;100620.28;5070260;28;20523;-30
2021/11/30 11:21:29;;;;;;;17.15;2.00;;;;;;;9.32;100.00;100624.50;5070642;28;20423;-37
2021/11/30 11:24:06;;;;;;;13.00;1.40;;;;;;;9.33;100.00;100628.94;5070673;28;20064;-31
2021/11/30 11:26:37;;;;;;;9.45;1.25;;;;;;;9.29;100.00;100627.03;5070016;28;20045;-37
2021/11/30 11:29:08;;;;;;;15.25;2.22;;;;;;;9.27;100.00;100624.56;5069533;28;20052;-39
2021/11/30 11:31:37;;;;;;;9.43;1.92;;;;;;;9.24;100.00;100629.88;5070854;28;20048;-33
2021/11/30 11:34:07;;;;;;;8.10;1.38;;;;;;;9.20;100.00;100632.41;5065199;28;20052;-33
2021/11/30 11:36:36;;;;;;;15.00;2.00;;;;;;;9.18;100.00;100639.44;5070449;28;20037;-37